Flight Track Log - Related Links

Times and Time Zones

All times are in EDT time to prevent confusion due to time zone crossing. See the N3746H flight status page for this flight to view local times or setup timezone preferences in your user account.

Time Position Orientation Groundspeed Altitude Reporting Facility
EDT Latitude Longitude Course Direction KTS MPH feet Rate Location/Type
Thu 02:28:51 PM 19.1039 -69.8675 342° North 473 544 19,200  Level Miami Center
Thu 02:29:51 PM 19.2178 -69.9058 344° North 447 514 20,700 1,550 Climbing Miami Center
Thu 02:30:51 PM 19.3303 -69.9550 338° Northwest 436 502 22,300 1,550 Climbing Miami Center
Thu 02:31:51 PM 19.4428 -70.0022 338° Northwest 436 502 23,800 1,350 Climbing Miami Center
Thu 02:32:51 PM 19.5614 -70.0492 340° North 441 507 25,000 1,550 Climbing Miami Center
Thu 02:33:51 PM 19.6778 -70.0942 340° North 446 513 26,900 1,600 Climbing Miami Center
Thu 02:34:51 PM 19.7897 -70.1350 341° North 438 504 28,200 1,150 Climbing Miami Center
Thu 02:35:51 PM 19.9064 -70.1800 340° North 432 497 29,200 1,100 Climbing Miami Center
Thu 02:36:51 PM 20.0186 -70.2297 337° Northwest 438 504 30,400 1,300 Climbing Miami Center
Thu 02:37:51 PM 20.1350 -70.2706 342° North 438 504 31,800 1,250 Climbing Miami Center
Thu 02:38:51 PM 20.2472 -70.3158 339° North 438 504 32,900 1,050 Climbing Miami Center
Thu 02:39:51 PM 20.3653 -70.3458 347° North 438 504 33,900 950 Climbing Miami Center
Thu 02:40:51 PM 20.4858 -70.3400 North 420 483 34,800 100 Climbing Miami Center
Thu 02:41:51 PM 20.6067 -70.3386 North 430 495 34,100 -400 Descending Miami Center
Thu 02:42:51 PM 20.7264 -70.3597 351° North 430 495 34,000 -50 Descending Miami Center
Thu 02:43:51 PM 20.8453 -70.3650 358° North 430 495 34,000  Level Miami Center
Thu 02:44:51 PM 20.9658 -70.3547 North 425 489 34,000  Level Miami Center
Thu 02:45:51 PM 21.0903 -70.3444 North 425 489 34,000  Level Miami Center
Thu 02:46:51 PM 21.2089 -70.3342 North 431 496 34,000  Level Miami Center
Thu 02:47:51 PM 21.3314 -70.3239 North 431 496 34,000  Level Miami Center
Thu 02:48:51 PM 21.4519 -70.3158 North 431 496 34,000  Level Miami Center
Thu 02:49:51 PM 21.5744 -70.3056 North 436 502 34,000  Level Miami Center
Thu 02:50:51 PM 21.6869 -70.3000 North 443 510 34,000  Level Miami Center
Thu 02:51:51 PM 21.8075 -70.2917 North 443 510 34,000  Level Miami Center
Thu 02:52:51 PM 21.9278 -70.2814 North 438 504 34,000  Level Miami Center
Thu 02:53:51 PM 22.0483 -70.2708 North 438 504 34,000  Level Miami Center
Thu 02:54:51 PM 22.1689 -70.2625 North 438 504 34,000  Level Miami Center
Thu 02:55:51 PM 22.2897 -70.2542 North 438 504 34,000  Level Miami Center
Thu 02:56:51 PM 22.4039 -70.2442 North 428 493 34,000  Level Miami Center
Thu 02:57:51 PM 22.5244 -70.2358 North 428 493 34,000  Level Miami Center
Thu 02:58:51 PM 22.6431 -70.2275 North 422 486 34,000  Level Miami Center
Thu 02:59:51 PM 22.7636 -70.2214 North 422 486 34,000  Level Miami Center
Thu 03:00:51 PM 22.8822 -70.2106 North 422 486 34,000  Level Miami Center
Thu 03:01:51 PM 22.9986 -70.2003 North 422 486 34,000  Level Miami Center
Thu 03:02:51 PM 23.1192 -70.1939 North 422 486 34,000  Level Miami Center
Thu 03:03:51 PM 23.2397 -70.1831 North 422 486 34,000  Level Miami Center
Thu 03:04:51 PM 23.3606 -70.1769 North 422 486 34,000  Level Miami Center
Thu 03:05:51 PM 23.4767 -70.1664 North 422 486 34,000  Level Miami Center
Thu 03:06:51 PM 23.5950 -70.1508 North 422 486 34,000  Level Miami Center
Thu 03:07:51 PM 23.7136 -70.1447 North 422 486 34,000  Level Miami Center
Thu 03:08:51 PM 23.8344 -70.1383 North 422 486 34,000  Level Miami Center
Thu 03:09:51 PM 23.9633 -70.1292 North 422 486 34,000  Level Miami Center
Thu 03:10:51 PM 24.0839 -70.1203 North 422 486 34,000  Level Miami Center
Thu 03:11:51 PM 24.2022 -70.1050 North 422 486 34,000  Level Miami Center
Thu 03:12:51 PM 24.3228 -70.0961 North 422 486 34,000  Level Miami Center
Thu 03:13:51 PM 24.4414 -70.0897 North 422 486 34,000  Level Miami Center
Thu 03:14:51 PM 24.5619 -70.0808 North 422 486 34,000  Level Miami Center
Thu 03:16:00 PM 24.6939 -70.0704 North  Level FlightAware Approximate
Thu 03:16:51 PM 24.8014 -70.0653 North 422 486 34,000  Level Miami Center
Thu 03:17:51 PM 24.9197 -70.0519 North 422 486 34,000  Level Miami Center
Thu 03:18:51 PM 25.0406 -70.0519 360° North 422 486 34,000  Level Miami Center
Thu 03:19:31 PM 25.0000 -70.0500 348° North 433 498 34,000  Level New York Oceanic (ODAPS)
Thu 03:26:00 PM 25.9460 -70.2704 348° North 433 498 34,000  Level FlightAware Transoceanic
Thu 03:27:00 PM 26.0642 -70.2982 348° North 433 498 34,000  Level FlightAware Transoceanic
Thu 03:28:00 PM 26.1825 -70.3261 348° North 433 498 34,000  Level FlightAware Transoceanic
Thu 03:29:00 PM 26.3007 -70.3540 348° North 433 498 34,000  Level FlightAware Transoceanic
Thu 03:30:00 PM 26.4189 -70.3820 348° North 433 498 34,000  Level FlightAware Transoceanic
Thu 03:31:00 PM 26.5371 -70.4100 348° North 433 498 34,000  Level FlightAware Transoceanic
Thu 03:32:00 PM 26.6553 -70.4381 348° North 433 498 34,000  Level FlightAware Transoceanic
Thu 03:33:00 PM 26.7735 -70.4663 348° North 433 498 34,000  Level FlightAware Transoceanic
Thu 03:34:00 PM 26.8917 -70.4945 348° North 433 498 34,000  Level FlightAware Transoceanic
Thu 03:35:00 PM 27.0099 -70.5227 348° North 433 498 34,000  Level FlightAware Transoceanic
Thu 03:36:00 PM 27.1280 -70.5510 348° North 433 498 34,000  Level FlightAware Transoceanic
Thu 03:37:00 PM 27.2462 -70.5794 348° North 433 498 34,000  Level FlightAware Transoceanic
Thu 03:38:00 PM 27.3644 -70.6079 348° North 433 498 34,000  Level FlightAware Transoceanic
Thu 03:39:00 PM 27.4825 -70.6364 348° North 433 498 34,000  Level FlightAware Transoceanic
Thu 03:40:00 PM 27.6007 -70.6649 348° North 433 498 34,000  Level FlightAware Transoceanic
Thu 03:41:00 PM 27.7188 -70.6936 348° North 433 498 34,000  Level FlightAware Transoceanic
Thu 03:42:00 PM 27.8370 -70.7223 348° North 433 498 34,000  Level FlightAware Transoceanic
Thu 03:43:00 PM 27.9551 -70.7510 348° North 433 498 34,000  Level FlightAware Transoceanic
Thu 03:44:00 PM 28.0732 -70.7798 348° North 433 498 34,000  Level FlightAware Transoceanic
Thu 03:45:00 PM 28.1914 -70.8087 348° North 433 498 34,000  Level FlightAware Transoceanic
Thu 03:46:00 PM 28.3095 -70.8376 348° North 433 498 34,000  Level FlightAware Transoceanic
Thu 03:47:00 PM 28.4276 -70.8667 348° North 433 498 34,000  Level FlightAware Transoceanic
Thu 03:48:00 PM 28.5457 -70.8957 348° North 433 498 34,000  Level FlightAware Transoceanic
Thu 03:49:00 PM 28.6638 -70.9249 348° North 433 498 34,000  Level FlightAware Transoceanic
Thu 03:50:00 PM 28.7819 -70.9541 348° North 433 498 34,000  Level FlightAware Transoceanic
Thu 03:51:00 PM 28.9000 -70.9833 348° North 433 498 34,000  Level FlightAware Transoceanic
Thu 03:52:00 PM 29.0184 -71.0124 348° North 433 498 34,000  Level FlightAware Transoceanic
Thu 03:52:04 PM 28.9000 -70.9833 348° North 424 488 34,000  Level New York Oceanic (ODAPS)
Thu 03:53:00 PM 29.1367 -71.0415 348° North 433 498 34,000  Level FlightAware Transoceanic
Thu 03:54:00 PM 29.2551 -71.0707 348° North 433 498 34,000  Level FlightAware Transoceanic
Thu 03:55:00 PM 29.3734 -71.1000 348° North 433 498 34,000  Level FlightAware Transoceanic
Thu 03:56:00 PM 29.4918 -71.1294 348° North 433 498 34,000  Level FlightAware Transoceanic
Thu 03:57:00 PM 29.6101 -71.1588 348° North 433 498 34,000  Level FlightAware Transoceanic
Thu 03:58:00 PM 29.7096 -71.1836 348° North 424 488 34,000  Level FlightAware Transoceanic
Thu 03:59:00 PM 29.8252 -71.2124 348° North 424 488 34,000  Level FlightAware Transoceanic
Thu 04:00:00 PM 29.9408 -71.2414 348° North 424 488 34,000  Level FlightAware Transoceanic
Thu 04:01:00 PM 30.0564 -71.2704 348° North 424 488 34,000  Level FlightAware Transoceanic
Thu 04:02:00 PM 30.1721 -71.2994 348° North 424 488 34,000  Level FlightAware Transoceanic
Thu 04:03:00 PM 30.2877 -71.3286 348° North 424 488 34,000  Level FlightAware Transoceanic
Thu 04:04:00 PM 30.4033 -71.3578 348° North 424 488 34,000  Level FlightAware Transoceanic
Thu 04:05:00 PM 30.5189 -71.3870 348° North 424 488 34,000  Level FlightAware Transoceanic
Thu 04:06:00 PM 30.6344 -71.4164 348° North 424 488 34,000  Level FlightAware Transoceanic
Thu 04:07:00 PM 30.7500 -71.4458 348° North 424 488 34,000  Level FlightAware Transoceanic
Thu 04:08:00 PM 30.8656 -71.4753 348° North 424 488 34,000  Level FlightAware Transoceanic
Thu 04:09:00 PM 30.9812 -71.5049 348° North 424 488 34,000  Level FlightAware Transoceanic
Thu 04:10:00 PM 31.0967 -71.5345 348° North 424 488 34,000  Level FlightAware Transoceanic
Thu 04:11:00 PM 31.2123 -71.5642 348° North 424 488 34,000  Level FlightAware Transoceanic
Thu 04:12:00 PM 31.3278 -71.5939 348° North 424 488 34,000  Level FlightAware Transoceanic
Thu 04:13:00 PM 31.4433 -71.6238 348° North 424 488 34,000  Level FlightAware Transoceanic
Thu 04:14:00 PM 31.5589 -71.6537 348° North 424 488 34,000  Level FlightAware Transoceanic
Thu 04:15:00 PM 31.6744 -71.6837 348° North 424 488 34,000  Level FlightAware Transoceanic
Thu 04:16:00 PM 31.7899 -71.7138 348° North 424 488 34,000  Level FlightAware Transoceanic
Thu 04:17:00 PM 31.9054 -71.7439 347° North 424 488 34,000  Level FlightAware Transoceanic
Thu 04:18:00 PM 32.0209 -71.7741 347° North 424 488 34,000  Level FlightAware Transoceanic
Thu 04:19:00 PM 32.1364 -71.8044 347° North 424 488 34,000  Level FlightAware Transoceanic
Thu 04:20:00 PM 32.2519 -71.8348 347° North 424 488 34,000  Level FlightAware Transoceanic
Thu 04:21:00 PM 32.3674 -71.8653 347° North 424 488 34,000  Level FlightAware Transoceanic
Thu 04:22:00 PM 32.4829 -71.8958 347° North 424 488 34,000  Level FlightAware Transoceanic
Thu 04:23:00 PM 32.5983 -71.9264 347° North 424 488 34,000  Level FlightAware Transoceanic
Thu 04:24:00 PM 32.7138 -71.9571 347° North 424 488 34,000  Level FlightAware Transoceanic
Thu 04:25:00 PM 32.8293 -71.9878 347° North 424 488 34,000  Level FlightAware Transoceanic
Thu 04:26:00 PM 32.9447 -72.0187 347° North 424 488 34,000  Level FlightAware Transoceanic
Thu 04:27:00 PM 33.0601 -72.0496 347° North 424 488 34,000  Level FlightAware Transoceanic
Thu 04:28:00 PM 33.1755 -72.0806 347° North 424 488 34,000  Level FlightAware Transoceanic
Thu 04:29:00 PM 33.2910 -72.1117 347° North 424 488 34,000  Level FlightAware Transoceanic
Thu 04:30:00 PM 33.4064 -72.1429 347° North 424 488 34,000  Level FlightAware Transoceanic
Thu 04:31:00 PM 33.5218 -72.1741 347° North 424 488 34,000  Level FlightAware Transoceanic
Thu 04:32:00 PM 33.6372 -72.2055 347° North 424 488 34,000  Level FlightAware Transoceanic
Thu 04:33:00 PM 33.7526 -72.2369 347° North 424 488 34,000  Level FlightAware Transoceanic
Thu 04:34:00 PM 33.8680 -72.2684 347° North 424 488 34,000  Level FlightAware Transoceanic
Thu 04:35:00 PM 33.9833 -72.3000 355° North 424 488 34,000  Level FlightAware Transoceanic
Thu 04:36:00 PM 34.1019 -72.3128 355° North 424 488 34,000  Level FlightAware Transoceanic
Thu 04:37:00 PM 34.2204 -72.3257 355° North 424 488 34,000  Level FlightAware Transoceanic
Thu 04:37:52 PM 34.2308 -72.2939 355° North 457 526 34,000  Level New York Center
Thu 04:38:00 PM 34.3389 -72.3386 355° North 424 488 34,000  Level FlightAware Transoceanic
Thu 04:38:53 PM 34.3581 -72.3014 357° North 457 526 34,000  Level New York Center
Thu 04:39:00 PM 34.4574 -72.3515 355° North 424 488 34,000  Level FlightAware Transoceanic
Thu 04:39:51 PM 34.4831 -72.3039 359° North 457 526 34,000  Level New York Center
Thu 04:40:00 PM 34.5759 -72.3644 355° North 424 488 34,000  Level FlightAware Transoceanic
Thu 04:40:51 PM 34.6083 -72.3064 359° North 457 526 34,000  Level New York Center
Thu 04:41:00 PM 34.6945 -72.3774 355° North 424 488 34,000  Level FlightAware Transoceanic
Thu 04:41:51 PM 34.7333 -72.3089 359° North 457 526 34,000  Level New York Center
Thu 04:42:00 PM 34.8130 -72.3905 355° North 424 488 34,000  Level FlightAware Transoceanic
Thu 04:42:52 PM 34.7825 -72.3678 315° West 457 526 34,000  Level New York Center
Thu 04:43:00 PM 34.9315 -72.4035 355° North 424 488 34,000  Level FlightAware Transoceanic
Thu 04:43:52 PM 34.9639 -72.3844 356° North 493 567 34,000  Level New York Center
Thu 04:44:53 PM 35.0867 -72.4022 353° North 466 536 34,000  Level New York Center
Thu 04:45:51 PM 35.2117 -72.4122 356° North 449 517 34,000  Level New York Center
Thu 04:46:52 PM 35.3389 -72.4100 North 442 509 34,000  Level New York Center
Thu 04:47:53 PM 35.4664 -72.4075 North 442 509 34,000  Level New York Center
Thu 04:48:51 PM 35.5914 -72.4078 360° North 450 518 34,000  Level New York Center
Thu 04:49:51 PM 35.7208 -72.4056 North 450 518 34,000  Level New York Center
Thu 04:50:52 PM 35.8439 -72.4056 360° North 450 518 34,000  Level New York Center
Thu 04:51:53 PM 35.9775 -72.4006 North 462 532 34,000  Level New York Center
Thu 04:52:53 PM 36.1069 -72.4008 360° North 462 532 34,000  Level New York Center
Thu 04:53:51 PM 36.2300 -72.3983 North 455 524 34,000  Level New York Center
Thu 04:54:52 PM 36.3550 -72.4011 359° North 450 518 34,000  Level New York Center
Thu 04:55:53 PM 36.4844 -72.3989 North 457 526 34,000  Level New York Center
Thu 04:56:51 PM 36.6242 -72.3967 North 465 535 34,000  Level New York Center
Thu 04:57:51 PM 36.7517 -72.3969 360° North 465 535 34,000  Level New York Center
Thu 04:58:52 PM 36.8853 -72.3789 North 471 542 34,000  Level New York Center
Thu 04:59:53 PM 37.0150 -72.3611 North 477 549 34,000  Level New York Center
Thu 05:00:51 PM 37.1486 -72.3431 North 477 549 34,000  Level New York Center
Thu 05:01:52 PM 37.2825 -72.3225 North 483 556 34,000  Level New York Center
Thu 05:02:53 PM 37.4161 -72.3044 North 478 550 34,000  Level New York Center
Thu 05:03:51 PM 37.5519 -72.2864 North 478 550 34,000  Level New York Center
Thu 05:04:51 PM 37.6753 -72.2706 North 477 549 34,000  Level New York Center
Thu 05:05:52 PM 37.8092 -72.2522 North 469 540 34,000 -49 Level New York Center
Thu 05:06:53 PM 37.9408 -72.2233 10° North 469 540 33,900 -50 Descending New York Center
Thu 05:07:53 PM 38.0725 -72.2103 North 469 540 33,900 50 Level New York Center
Thu 05:08:52 PM 38.2019 -72.1944 North 469 540 34,000 51 Climbing New York Center
Thu 05:09:51 PM 38.3314 -72.1758 North 464 534 34,000  Level New York Center
Thu 05:10:52 PM 38.4653 -72.1492 North 464 534 34,000  Level New York Center
Thu 05:11:52 PM 38.5947 -72.1358 North 464 534 34,000 -454 Level New York Center
Thu 05:12:51 PM 38.7283 -72.1144 North 469 540 33,100 -1,100 Descending New York Center
Thu 05:13:52 PM 38.8428 -72.1486 347° North 438 504 31,800 -2,281 Descending New York Center
Thu 05:14:52 PM 38.9206 -72.2675 310° West 398 458 28,500 -2,350 Descending New York Center
Thu 05:15:52 PM 39.0022 -72.3869 311° West 420 483 27,100 -1,190 Descending New York Center
Thu 05:16:53 PM 39.0842 -72.5011 313° West 425 489 26,100 -1,008 Descending New York Center
Thu 05:17:51 PM 39.1636 -72.6208 311° West 432 497 25,100 -1,678 Descending New York Center
Thu 05:18:51 PM 39.2389 -72.7275 312° West 426 490 22,800 -2,400 Descending New York Center
Thu 05:19:51 PM 39.3161 -72.8397 312° West 418 481 20,300 -2,430 Descending New York Center
Thu 05:20:52 PM 39.3872 -72.9411 312° West 397 457 17,900 -2,250 Descending New York Center
Thu 05:21:51 PM 39.4561 -73.0428 311° West 386 444 15,800 -1,916 Descending New York Center
Thu 05:22:51 PM 39.5211 -73.1311 314° West 361 415 14,100 -2,200 Descending New York Center
Thu 05:23:51 PM 39.5839 -73.2275 310° West 353 406 11,400 -2,430 Descending New York Center
Thu 05:24:52 PM 39.6486 -73.3158 314° West 345 397 9,200 -1,180 Descending New York Center
Thu 05:25:53 PM 39.7050 -73.4017 311° West 330 380 9,000 -151 Descending New York Center
Thu 05:26:51 PM 39.7594 -73.4819 311° West 288 331 8,900 -51 Descending New York Center
Thu 05:27:51 PM 39.8036 -73.5539 309° West 267 307 8,900  Level New York Center
Thu 05:28:51 PM 39.8542 -73.6236 313° West 262 302 8,900  Level New York Center
Thu 05:29:52 PM 39.9025 -73.6933 312° West 262 302 8,900  Level New York Center
Thu 05:30:51 PM 39.9506 -73.7656 311° West 262 302 8,900 50 Level New York Center
Thu 05:31:52 PM 40.0011 -73.8247 318° Northwest 262 302 9,000 -295 Climbing New York Center
Thu 05:32:53 PM 40.0825 -73.8203 North 253 291 8,300 -1,010 Descending New York Center
Thu 05:33:33 PM 40.1333 -73.8000 17° North 278 320 7,300 -780 Descending New York TRACON
Thu 05:34:33 PM 40.2000 -73.7667 21° North 271 312 7,000 -150 Descending New York TRACON
Thu 05:35:33 PM 40.2667 -73.7167 30° Northeast 277 319 7,000  Level New York TRACON
Thu 05:36:33 PM 40.3333 -73.6667 30° Northeast 277 319 7,000  Level New York TRACON
Thu 05:37:33 PM 40.4000 -73.6000 37° Northeast 278 320 7,000  Level New York TRACON
Thu 05:38:33 PM 40.4667 -73.5500 30° Northeast 275 316 7,000 -105 Level New York TRACON
Thu 05:39:27 PM 40.5333 -73.5167 21° North 274 315 6,800 -1,300 Descending New York TRACON
Thu 05:40:33 PM 40.6000 -73.4833 21° North 252 290 4,400 -1,333 Descending New York TRACON
Thu 05:41:33 PM 40.6667 -73.4500 21° North 244 281 4,000 -250 Descending New York TRACON
Thu 05:42:33 PM 40.7167 -73.4667 346° North 221 254 3,900 -50 Descending New York TRACON
Thu 05:43:33 PM 40.7667 -73.5000 333° Northwest 199 229 3,900 -600 Level New York TRACON
Thu 05:44:33 PM 40.8000 -73.5500 311° West 183 211 2,700 -1,000 Descending New York TRACON
Thu 05:45:27 PM 40.8000 -73.6167 270° West 184 212 2,000 -450 Descending New York TRACON
Thu 05:46:33 PM 40.7667 -73.6667 229° Southwest 179 206 1,800 -182 Descending New York TRACON

Login

Don't have an account? Register now (free) for customized features, flight alerts, and more!